createdAt,value
2022-08-08T00:01:06.565Z,10.55
2022-08-08T00:03:35.864Z,9.98
2022-08-08T00:06:04.489Z,18.23
2022-08-08T00:08:31.740Z,27.58
2022-08-08T00:10:58.781Z,24.27
2022-08-08T00:14:15.751Z,21.73
2022-08-08T00:16:13.084Z,18.00
2022-08-08T00:18:41.551Z,13.82
2022-08-08T00:21:08.944Z,9.60
2022-08-08T00:23:47.646Z,13.60
2022-08-08T00:28:48.921Z,13.18
2022-08-08T00:32:16.140Z,11.85
2022-08-08T00:34:17.996Z,11.10
2022-08-08T00:36:46.697Z,6.93
2022-08-08T00:41:07.688Z,10.85
2022-08-08T00:42:08.889Z,9.98
2022-08-08T00:44:46.816Z,9.68
2022-08-08T00:47:19.640Z,9.98
2022-08-08T00:49:59.161Z,7.13
2022-08-08T00:52:28.876Z,9.38
2022-08-08T00:55:01.778Z,6.63
2022-08-08T00:57:36.118Z,8.98
2022-08-08T01:00:04.909Z,10.50
2022-08-08T01:03:58.025Z,11.02
2022-08-08T01:05:42.047Z,12.75
2022-08-08T01:08:07.716Z,14.07
2022-08-08T01:10:35.671Z,11.27
2022-08-08T01:13:03.917Z,6.28
2022-08-08T01:15:43.815Z,8.43
2022-08-08T01:18:16.101Z,7.30
2022-08-08T01:20:52.282Z,6.28
2022-08-08T01:24:03.794Z,7.97
2022-08-08T01:26:11.475Z,11.13
2022-08-08T01:28:39.088Z,12.02
2022-08-08T01:31:06.131Z,5.07
2022-08-08T01:34:00.252Z,6.70
2022-08-08T01:36:28.350Z,8.63
2022-08-08T01:38:55.565Z,9.02
2022-08-08T01:41:22.650Z,8.65
2022-08-08T01:43:52.405Z,7.70
2022-08-08T01:46:19.429Z,8.13
2022-08-08T01:48:48.281Z,7.38
2022-08-08T01:51:31.766Z,7.88
2022-08-08T01:55:15.047Z,6.60
2022-08-08T01:56:49.471Z,7.03
2022-08-08T01:59:16.967Z,8.98
2022-08-08T02:01:54.839Z,8.50
2022-08-08T02:04:28.191Z,6.78
2022-08-08T02:06:55.423Z,8.70
2022-08-08T02:10:01.705Z,7.75
2022-08-08T02:12:09.402Z,7.20
2022-08-08T02:14:56.051Z,7.32
2022-08-08T02:17:26.172Z,6.53
2022-08-08T02:20:09.684Z,7.32
2022-08-08T02:22:52.348Z,7.38
2022-08-08T02:25:21.795Z,8.68
2022-08-08T02:27:49.747Z,7.70
2022-08-08T02:30:21.441Z,7.00
2022-08-08T02:32:51.734Z,9.00
2022-08-08T02:35:18.751Z,6.80
2022-08-08T02:37:53.358Z,9.35
2022-08-08T02:40:24.165Z,7.18
2022-08-08T02:44:35.093Z,8.52
2022-08-08T02:45:54.345Z,5.35
2022-08-08T02:48:25.764Z,6.43
2022-08-08T02:50:55.927Z,7.68
2022-08-08T02:53:24.031Z,6.93
2022-08-08T02:55:59.772Z,7.25
2022-08-08T02:58:27.134Z,6.18
2022-08-08T03:00:54.621Z,5.30
2022-08-08T03:05:01.564Z,6.35
2022-08-08T03:06:08.771Z,6.22
2022-08-08T03:08:37.460Z,5.97
2022-08-08T03:11:05.139Z,8.63
2022-08-08T03:15:54.306Z,6.68
2022-08-08T03:16:34.282Z,8.07
2022-08-08T03:19:04.040Z,7.15
2022-08-08T03:21:40.940Z,10.00
2022-08-08T03:24:18.037Z,6.05
2022-08-08T03:26:46.673Z,8.18
2022-08-08T03:29:18.761Z,9.45
2022-08-08T03:32:07.185Z,7.00
2022-08-08T03:34:35.604Z,6.53
2022-08-08T03:37:10.752Z,7.55
2022-08-08T03:40:00.495Z,6.63
2022-08-08T03:42:30.452Z,11.05
2022-08-08T03:44:58.508Z,5.53
2022-08-08T03:47:25.713Z,7.25
2022-08-08T03:50:06.651Z,7.72
2022-08-08T03:52:45.177Z,5.53
2022-08-08T03:55:56.597Z,5.32
2022-08-08T03:58:34.814Z,12.55
2022-08-08T04:01:01.410Z,12.82
2022-08-08T04:03:58.214Z,6.63
2022-08-08T04:06:16.938Z,8.93
2022-08-08T04:08:46.016Z,8.10
2022-08-08T04:11:17.590Z,7.60
2022-08-08T04:14:03.266Z,9.73
2022-08-08T04:16:38.894Z,5.28
2022-08-08T04:19:23.395Z,7.05
2022-08-08T04:21:52.345Z,7.05
2022-08-08T04:24:28.891Z,6.55
2022-08-08T04:26:58.801Z,8.57
2022-08-08T04:29:26.183Z,6.65
2022-08-08T04:31:59.119Z,6.68
2022-08-08T04:34:31.852Z,9.60
2022-08-08T04:36:59.202Z,6.82
2022-08-08T04:40:03.601Z,9.35
2022-08-08T04:42:15.899Z,7.22
2022-08-08T04:44:47.705Z,6.78
2022-08-08T04:47:15.038Z,6.55
2022-08-08T04:50:00.391Z,4.90
2022-08-08T04:52:35.015Z,6.07
2022-08-08T04:55:02.311Z,6.23
2022-08-08T04:57:31.289Z,6.28
2022-08-08T05:00:02.274Z,6.15
2022-08-08T05:02:31.019Z,5.65
2022-08-08T05:04:59.327Z,8.90
2022-08-08T05:07:26.791Z,6.78
2022-08-08T05:10:05.303Z,8.38
2022-08-08T05:12:36.706Z,8.48
2022-08-08T05:15:13.645Z,10.57
2022-08-08T05:17:53.590Z,7.68
2022-08-08T05:20:21.043Z,6.30
2022-08-08T05:22:48.039Z,8.75
2022-08-08T05:25:16.097Z,8.40
2022-08-08T05:27:48.409Z,9.13
2022-08-08T05:30:15.462Z,6.22
2022-08-08T05:32:43.048Z,9.45
2022-08-08T05:35:13.675Z,6.38
2022-08-08T05:37:52.762Z,7.20
2022-08-08T05:40:27.712Z,7.72
2022-08-08T05:42:55.537Z,9.93
2022-08-08T05:45:25.263Z,12.38
2022-08-08T05:48:00.759Z,9.85
2022-08-08T05:50:35.074Z,7.68
2022-08-08T05:53:54.892Z,7.72
2022-08-08T05:56:10.618Z,8.73
2022-08-08T05:58:36.712Z,9.60
2022-08-08T06:01:04.909Z,8.15
2022-08-08T06:03:33.658Z,6.68
2022-08-08T06:06:01.358Z,5.95
2022-08-08T06:08:34.793Z,11.73
2022-08-08T06:11:02.254Z,7.40
2022-08-08T06:13:30.114Z,10.60
2022-08-08T06:16:03.635Z,7.93
2022-08-08T06:18:33.579Z,9.60
2022-08-08T06:21:03.546Z,7.22
2022-08-08T06:24:02.550Z,12.65
2022-08-08T06:26:38.788Z,8.30
2022-08-08T06:29:49.295Z,7.28
2022-08-08T06:32:11.446Z,11.05
2022-08-08T06:34:42.393Z,8.00
2022-08-08T06:37:25.230Z,7.97
2022-08-08T06:40:04.323Z,7.60
2022-08-08T06:42:31.412Z,7.47
2022-08-08T06:44:58.420Z,7.93
2022-08-08T06:47:31.515Z,5.53
2022-08-08T06:50:00.640Z,8.18
2022-08-08T06:52:31.345Z,4.72
2022-08-08T06:54:58.343Z,7.93
2022-08-08T06:57:25.337Z,6.70
2022-08-08T07:00:10.173Z,8.38
2022-08-08T07:02:38.307Z,7.22
2022-08-08T07:05:24.510Z,5.85
2022-08-08T07:07:57.148Z,4.68
2022-08-08T07:10:24.710Z,7.45
2022-08-08T07:12:51.746Z,6.35
2022-08-08T07:15:32.581Z,8.50
2022-08-08T07:18:35.593Z,5.55
2022-08-08T07:20:52.749Z,11.63
2022-08-08T07:23:23.533Z,7.40
2022-08-08T07:25:54.666Z,8.07
2022-08-08T07:28:22.483Z,5.60
2022-08-08T07:30:49.990Z,7.78
2022-08-08T07:33:17.625Z,5.70
2022-08-08T07:35:45.820Z,8.93
2022-08-08T07:38:20.557Z,6.32
2022-08-08T07:40:51.686Z,6.63
2022-08-08T07:43:32.372Z,6.85
2022-08-08T07:46:17.841Z,6.95
2022-08-08T07:48:51.547Z,4.57
2022-08-08T07:51:23.817Z,5.72
2022-08-08T07:54:05.615Z,14.07
2022-08-08T07:56:35.590Z,5.15
2022-08-08T07:59:04.253Z,17.02
2022-08-08T08:02:33.574Z,7.50
2022-08-08T08:04:20.000Z,7.18
2022-08-08T08:06:47.901Z,5.43
2022-08-08T08:09:16.182Z,6.03
2022-08-08T08:11:53.891Z,6.78
2022-08-08T08:14:20.948Z,7.50
2022-08-08T08:16:48.491Z,7.43
2022-08-08T08:19:15.750Z,4.82
2022-08-08T08:21:56.837Z,5.80
2022-08-08T08:24:30.985Z,9.65
2022-08-08T08:26:59.647Z,5.68
2022-08-08T08:29:29.639Z,5.05
2022-08-08T08:31:58.355Z,4.57
2022-08-08T08:34:32.558Z,5.57
2022-08-08T08:37:00.837Z,3.65
2022-08-08T08:39:59.810Z,4.68
2022-08-08T08:42:31.828Z,7.00
2022-08-08T08:45:21.885Z,3.80
2022-08-08T08:47:50.049Z,4.28
2022-08-08T08:50:32.449Z,3.85
2022-08-08T08:53:04.974Z,5.53
2022-08-08T08:55:49.516Z,8.73
2022-08-08T08:58:16.596Z,8.00
2022-08-08T09:01:05.286Z,7.03
2022-08-08T09:03:45.580Z,6.15
2022-08-08T09:06:26.358Z,6.72
2022-08-08T09:08:54.217Z,4.50
2022-08-08T09:11:21.826Z,5.82
2022-08-08T09:13:50.203Z,4.82
2022-08-08T09:16:20.691Z,3.88
2022-08-08T09:18:55.871Z,6.20
2022-08-08T09:21:59.582Z,4.00
2022-08-08T09:24:13.511Z,4.40
2022-08-08T09:26:40.758Z,6.07
2022-08-08T09:29:22.239Z,4.50
2022-08-08T09:31:56.902Z,5.88
2022-08-08T09:34:32.863Z,3.33
2022-08-08T09:37:46.314Z,4.75
2022-08-08T09:39:49.109Z,5.18
2022-08-08T09:42:21.047Z,3.67
2022-08-08T09:44:48.922Z,3.17
2022-08-08T09:47:26.008Z,5.38
2022-08-08T09:50:05.606Z,3.42
2022-08-08T09:52:55.506Z,8.27
2022-08-08T09:56:03.774Z,4.55
2022-08-08T09:58:11.171Z,5.07
2022-08-08T10:00:53.689Z,4.43
2022-08-08T10:03:24.345Z,7.47
2022-08-08T10:05:51.414Z,3.53
2022-08-08T10:08:18.528Z,4.70
2022-08-08T10:10:49.992Z,4.72
2022-08-08T10:13:18.565Z,6.03
2022-08-08T10:15:59.221Z,7.40
2022-08-08T10:18:28.262Z,4.88
2022-08-08T10:21:00.697Z,5.28
2022-08-08T10:23:42.019Z,5.30
2022-08-08T10:26:25.728Z,4.25
2022-08-08T10:28:57.188Z,3.28
2022-08-08T10:31:47.185Z,4.65
2022-08-08T10:34:18.740Z,2.70
2022-08-08T10:36:47.451Z,3.08
2022-08-08T10:39:14.531Z,3.20
2022-08-08T10:42:13.377Z,4.57
2022-08-08T10:44:28.622Z,4.85
2022-08-08T10:46:56.321Z,3.58
2022-08-08T10:49:26.830Z,4.28
2022-08-08T10:52:10.882Z,3.55
2022-08-08T10:54:41.326Z,2.13
2022-08-08T10:57:08.825Z,3.90
2022-08-08T10:59:39.627Z,3.83
2022-08-08T11:02:08.015Z,3.13
2022-08-08T11:04:38.992Z,7.15
2022-08-08T11:07:06.798Z,6.55
2022-08-08T11:09:34.396Z,4.13
2022-08-08T11:12:13.250Z,7.10
2022-08-08T11:14:41.317Z,2.70
2022-08-08T11:17:14.981Z,4.85
2022-08-08T11:19:42.753Z,3.83
2022-08-08T11:22:13.700Z,2.42
2022-08-08T11:24:40.759Z,1.52
2022-08-08T11:27:10.723Z,2.22
2022-08-08T11:30:04.553Z,2.58
2022-08-08T11:32:34.034Z,1.77
2022-08-08T11:35:29.560Z,2.95
2022-08-08T11:38:39.480Z,4.40
2022-08-08T11:40:37.575Z,4.22
2022-08-08T11:43:04.599Z,3.03
2022-08-08T11:45:43.658Z,3.55
2022-08-08T11:48:20.467Z,2.17
2022-08-08T11:50:47.837Z,3.53
2022-08-08T11:53:19.639Z,2.22
2022-08-08T11:55:51.409Z,5.13
2022-08-08T11:58:18.427Z,3.67
2022-08-08T12:00:48.839Z,2.50
2022-08-08T12:03:16.117Z,3.05
2022-08-08T12:05:43.211Z,3.15
2022-08-08T12:08:10.305Z,1.80
2022-08-08T12:10:38.417Z,3.42
2022-08-08T12:13:14.578Z,2.72
2022-08-08T12:15:46.775Z,4.55
2022-08-08T12:18:14.074Z,2.85
2022-08-08T12:20:43.070Z,2.53
2022-08-08T12:23:13.937Z,2.70
2022-08-08T12:25:57.064Z,4.47
2022-08-08T12:28:24.882Z,3.35
2022-08-08T12:30:52.852Z,3.08
2022-08-08T12:33:19.864Z,4.53
2022-08-08T12:35:52.930Z,2.65
2022-08-08T12:38:20.211Z,1.85
2022-08-08T12:41:00.926Z,3.97
2022-08-08T12:43:46.203Z,3.30
2022-08-08T12:46:26.185Z,2.90
2022-08-08T12:49:21.885Z,3.13
2022-08-08T12:51:40.903Z,2.85
2022-08-08T12:54:24.472Z,4.63
2022-08-08T12:56:52.555Z,4.65
2022-08-08T12:59:20.485Z,2.85
2022-08-08T13:01:54.533Z,7.75
2022-08-08T13:04:24.490Z,2.83
2022-08-08T13:06:52.388Z,2.30
2022-08-08T13:09:19.400Z,1.48
2022-08-08T13:12:24.581Z,4.20
2022-08-08T13:14:35.009Z,1.75
2022-08-08T13:17:02.829Z,4.82
2022-08-08T13:19:41.168Z,2.55
2022-08-08T13:22:17.407Z,1.73
2022-08-08T13:24:48.790Z,1.25
2022-08-08T13:27:16.126Z,2.00
2022-08-08T13:29:43.131Z,8.63
2022-08-08T13:32:10.879Z,1.75
2022-08-08T13:34:40.106Z,1.63
2022-08-08T13:37:11.074Z,1.48
2022-08-08T13:39:54.196Z,3.45
2022-08-08T13:42:21.635Z,1.63
2022-08-08T13:44:48.637Z,2.10
2022-08-08T13:47:15.740Z,1.73
2022-08-08T13:50:37.262Z,4.07
2022-08-08T13:52:37.634Z,1.67
2022-08-08T13:55:05.328Z,2.05
2022-08-08T13:58:06.493Z,2.17
2022-08-08T14:00:20.019Z,4.07
2022-08-08T14:02:47.034Z,3.13
2022-08-08T14:05:21.565Z,1.63
2022-08-08T14:07:49.851Z,2.67
2022-08-08T14:10:33.688Z,4.53
2022-08-08T14:13:04.373Z,3.58
2022-08-08T14:15:39.672Z,1.33
2022-08-08T14:18:36.354Z,2.38
2022-08-08T14:21:00.524Z,2.22
2022-08-08T14:24:04.383Z,5.93
2022-08-08T14:26:16.463Z,1.30
2022-08-08T14:28:43.496Z,3.25
2022-08-08T14:31:10.509Z,1.83
2022-08-08T14:33:37.627Z,2.78
2022-08-08T14:36:04.650Z,2.33
2022-08-08T14:38:34.162Z,6.15
2022-08-08T14:41:53.095Z,1.45
2022-08-08T14:44:11.096Z,3.22
2022-08-08T14:46:38.850Z,7.83
2022-08-08T14:49:09.509Z,2.45
2022-08-08T14:51:53.060Z,1.85
2022-08-08T14:54:29.017Z,5.43
2022-08-08T14:56:57.094Z,1.83
2022-08-08T14:59:43.783Z,3.03
2022-08-08T15:02:15.222Z,3.95
2022-08-08T15:04:42.570Z,5.15
2022-08-08T15:07:22.269Z,3.53
2022-08-08T15:09:50.175Z,5.00
2022-08-08T15:12:27.259Z,5.05
2022-08-08T15:14:54.804Z,4.05
2022-08-08T15:17:22.680Z,6.70
2022-08-08T15:19:50.339Z,6.00
2022-08-08T15:22:17.945Z,7.45
2022-08-08T15:24:50.499Z,4.63
2022-08-08T15:28:03.297Z,7.32
2022-08-08T15:30:04.788Z,5.30
2022-08-08T15:32:35.338Z,5.30
2022-08-08T15:35:07.298Z,4.20
2022-08-08T15:37:34.513Z,4.38
2022-08-08T15:40:01.640Z,4.65
2022-08-08T15:42:41.422Z,5.40
2022-08-08T15:45:08.509Z,4.53
2022-08-08T15:47:35.522Z,8.57
2022-08-08T15:50:02.555Z,5.32
2022-08-08T15:52:29.813Z,4.22
2022-08-08T15:54:59.974Z,6.40
2022-08-08T15:57:29.387Z,4.47
2022-08-08T16:00:18.282Z,6.10
2022-08-08T16:02:51.115Z,3.08
2022-08-08T16:05:19.565Z,3.63
2022-08-08T16:07:52.625Z,3.80
2022-08-08T16:13:26.883Z,10.40
2022-08-08T16:15:57.534Z,11.93
2022-08-08T16:18:26.390Z,5.35
2022-08-08T16:20:53.388Z,4.60
2022-08-08T16:23:27.126Z,6.38
2022-08-08T16:25:59.235Z,4.43
2022-08-08T16:28:34.951Z,3.70
2022-08-08T16:31:06.519Z,4.47
2022-08-08T16:33:38.461Z,4.53
2022-08-08T16:36:08.957Z,5.35
2022-08-08T16:38:36.393Z,6.93
2022-08-08T16:41:11.976Z,3.35
2022-08-08T16:43:51.102Z,5.35
2022-08-08T16:46:37.692Z,5.72
2022-08-08T16:49:06.207Z,8.60
2022-08-08T16:55:05.725Z,8.13
2022-08-08T16:55:19.333Z,5.55
2022-08-08T16:57:43.586Z,4.93
2022-08-08T16:59:56.206Z,3.13
2022-08-08T17:02:33.045Z,5.80
2022-08-08T17:05:06.397Z,5.57
2022-08-08T17:07:33.399Z,5.63
2022-08-08T17:10:05.015Z,5.38
2022-08-08T17:12:34.758Z,5.07
2022-08-08T17:15:17.184Z,15.48
2022-08-08T17:18:03.772Z,6.28
2022-08-08T17:20:31.333Z,6.10
2022-08-08T17:23:16.559Z,4.47
2022-08-08T17:25:53.674Z,4.95
2022-08-08T17:28:28.792Z,4.45
2022-08-08T17:31:01.399Z,5.65
2022-08-08T17:34:48.506Z,4.93
2022-08-08T17:36:29.264Z,4.13
2022-08-08T17:38:58.280Z,6.82
2022-08-08T17:44:06.324Z,6.53
2022-08-08T17:46:37.213Z,5.30
2022-08-08T18:03:02.062Z,5.22
2022-08-08T18:05:48.315Z,4.82
2022-08-08T18:08:25.144Z,3.33
2022-08-08T18:11:03.971Z,3.20
2022-08-08T18:13:35.012Z,2.97
2022-08-08T18:16:09.146Z,7.90
2022-08-08T18:18:42.806Z,4.80
2022-08-08T18:30:13.427Z,5.18
2022-08-08T18:32:41.921Z,4.85
2022-08-08T18:35:15.313Z,4.28
2022-08-08T18:37:48.375Z,3.75
2022-08-08T18:40:15.659Z,4.63
2022-08-08T18:42:45.728Z,8.35
2022-08-08T18:46:00.665Z,3.47
2022-08-08T18:48:07.481Z,2.75
2022-08-08T18:50:39.487Z,3.67
2022-08-08T18:53:06.833Z,3.58
2022-08-08T18:55:34.330Z,3.83
2022-08-08T18:58:01.611Z,3.28
2022-08-08T19:00:28.617Z,2.63
2022-08-08T19:03:02.454Z,6.80
2022-08-08T19:05:37.725Z,3.60
2022-08-08T19:08:25.594Z,4.30
2022-08-08T19:10:55.711Z,3.55
2022-08-08T19:13:25.085Z,4.70
2022-08-08T19:15:55.877Z,5.13
2022-08-08T19:18:33.446Z,4.88
2022-08-08T19:21:28.032Z,6.30
2022-08-08T19:23:57.177Z,2.72
2022-08-08T19:26:30.445Z,4.28
2022-08-08T19:28:58.206Z,5.25
2022-08-08T19:31:31.258Z,5.30
2022-08-08T19:34:29.542Z,3.22
2022-08-08T19:36:45.988Z,2.92
2022-08-08T19:39:13.166Z,3.30
2022-08-08T19:41:41.615Z,2.92
2022-08-08T19:44:12.915Z,4.07
2022-08-08T19:46:40.361Z,5.07
2022-08-08T19:49:07.492Z,3.45
2022-08-08T19:51:41.621Z,3.05
2022-08-08T19:54:10.677Z,3.30
2022-08-08T19:56:40.398Z,6.20
2022-08-08T19:59:08.298Z,4.07
2022-08-08T20:02:01.261Z,3.53
2022-08-08T20:04:22.441Z,2.20
2022-08-08T20:06:51.063Z,4.78
2022-08-08T20:09:22.654Z,3.25
2022-08-08T20:11:50.621Z,2.88
2022-08-08T20:14:35.764Z,3.33
2022-08-08T20:17:04.148Z,4.90
2022-08-08T20:19:34.221Z,2.67
2022-08-08T20:22:13.110Z,3.75
2022-08-08T20:24:47.696Z,3.13
2022-08-08T20:27:20.658Z,3.38
2022-08-08T20:30:00.134Z,3.30
2022-08-08T20:32:28.310Z,3.85
2022-08-08T20:35:01.207Z,3.92
2022-08-08T20:37:47.071Z,4.00
2022-08-08T20:40:16.876Z,4.22
2022-08-08T20:42:44.166Z,7.55
2022-08-08T20:45:16.086Z,4.40
2022-08-08T20:48:03.096Z,4.93
2022-08-08T20:50:30.105Z,4.10
2022-08-08T20:52:58.530Z,2.25
2022-08-08T20:55:26.221Z,3.85
2022-08-08T20:57:53.426Z,5.30
2022-08-08T21:00:22.020Z,3.13
2022-08-08T21:02:52.495Z,3.08
2022-08-08T21:05:20.064Z,4.32
2022-08-08T21:08:33.886Z,6.78
2022-08-08T21:10:35.713Z,3.22
2022-08-08T21:13:02.776Z,5.60
2022-08-08T21:16:05.910Z,5.82
2022-08-08T21:18:16.844Z,7.03
2022-08-08T21:20:50.696Z,5.78
2022-08-08T21:23:18.326Z,5.18
2022-08-08T21:25:45.396Z,6.47
2022-08-08T21:28:27.986Z,5.78
2022-08-08T21:31:05.803Z,5.18
2022-08-08T21:33:49.385Z,6.53
2022-08-08T21:36:20.194Z,8.50
2022-08-08T21:38:47.561Z,6.88
2022-08-08T21:41:28.674Z,7.53
2022-08-08T21:44:01.552Z,9.23
2022-08-08T21:48:04.360Z,6.32
2022-08-08T21:49:16.912Z,5.50
2022-08-08T21:54:17.592Z,5.57
2022-08-08T21:54:54.248Z,6.03
2022-08-08T21:57:17.938Z,7.00
2022-08-08T22:00:03.795Z,3.60
2022-08-08T22:02:31.981Z,5.85
2022-08-08T22:05:01.238Z,5.90
2022-08-08T22:07:40.163Z,6.10
2022-08-08T22:10:09.358Z,6.13
2022-08-08T22:12:36.569Z,6.70
2022-08-08T22:15:04.340Z,5.13
2022-08-08T22:17:32.443Z,5.90
2022-08-08T22:20:19.039Z,8.00
2022-08-08T22:22:52.617Z,6.43
2022-08-08T22:25:25.002Z,8.10
2022-08-08T22:28:02.852Z,6.15
2022-08-08T22:30:31.890Z,7.13
2022-08-08T22:33:00.617Z,6.63
2022-08-08T22:36:04.483Z,6.70
2022-08-08T22:38:14.629Z,7.22
2022-08-08T22:40:44.835Z,9.95
2022-08-08T22:43:11.836Z,6.90
2022-08-08T22:45:38.856Z,5.20
2022-08-08T22:48:06.021Z,8.88
2022-08-08T22:50:33.868Z,7.22
2022-08-08T22:54:28.463Z,5.38
2022-08-08T22:55:57.824Z,6.20
2022-08-08T22:58:28.447Z,5.30
2022-08-08T23:00:55.936Z,6.53
2022-08-08T23:03:24.685Z,6.95
2022-08-08T23:06:01.555Z,7.50
2022-08-08T23:08:35.620Z,8.00
2022-08-08T23:11:05.940Z,7.80
2022-08-08T23:13:42.276Z,5.13
2022-08-08T23:16:39.108Z,7.10
2022-08-08T23:19:09.069Z,7.60
2022-08-08T23:21:38.051Z,6.60
2022-08-08T23:24:05.863Z,6.95
2022-08-08T23:26:33.941Z,4.38
2022-08-08T23:29:01.199Z,6.00
2022-08-08T23:31:28.214Z,6.00
2022-08-08T23:34:17.129Z,6.78
2022-08-08T23:36:42.391Z,7.65
2022-08-08T23:39:09.640Z,8.50
2022-08-08T23:41:43.547Z,6.45
2022-08-08T23:44:14.140Z,8.23
2022-08-08T23:49:06.939Z,5.43
2022-08-08T23:49:28.171Z,5.70
2022-08-08T23:52:04.382Z,6.03
2022-08-08T23:54:43.638Z,8.75
2022-08-08T23:57:27.639Z,8.02
